createdAt,value
2024-02-19T00:02:50.510Z,1.30
2024-02-19T00:05:56.741Z,1.33
2024-02-19T00:09:01.997Z,1.38
2024-02-19T00:12:10.547Z,1.38
2024-02-19T00:15:16.002Z,1.67
2024-02-19T00:18:22.439Z,1.63
2024-02-19T00:21:27.848Z,1.50
2024-02-19T00:24:33.425Z,1.60
2024-02-19T00:27:41.425Z,1.65
2024-02-19T00:30:46.963Z,1.70
2024-02-19T00:33:52.424Z,1.65
2024-02-19T00:36:58.475Z,1.60
2024-02-19T00:40:04.605Z,1.58
2024-02-19T00:43:12.867Z,1.40
2024-02-19T00:49:24.003Z,1.40
2024-02-19T00:52:29.771Z,1.35
2024-02-19T00:55:35.252Z,1.73
2024-02-19T00:58:43.474Z,1.50
2024-02-19T01:01:48.996Z,0.98
2024-02-19T01:04:55.107Z,1.00
2024-02-19T01:08:00.504Z,1.40
2024-02-19T01:11:06.319Z,1.15
2024-02-19T01:14:14.304Z,1.30
2024-02-19T01:17:20.500Z,1.10
2024-02-19T01:20:25.796Z,1.35
2024-02-19T01:23:31.216Z,1.20
2024-02-19T01:26:37.014Z,1.20
2024-02-19T01:29:45.228Z,0.60
2024-02-19T01:32:50.591Z,1.10
2024-02-19T01:35:56.110Z,1.00
2024-02-19T01:39:01.353Z,0.80
2024-02-19T01:42:07.477Z,1.10
2024-02-19T01:45:29.946Z,0.90
2024-02-19T01:48:36.137Z,0.77
2024-02-19T01:51:42.796Z,0.88
2024-02-19T01:54:48.593Z,0.90
2024-02-19T01:57:54.202Z,1.10
2024-02-19T02:01:02.555Z,0.70
2024-02-19T02:07:13.102Z,0.90
2024-02-19T02:10:19.819Z,0.80
2024-02-19T02:13:25.502Z,0.80
2024-02-19T02:16:33.421Z,1.10
2024-02-19T02:19:43.197Z,0.85
2024-02-19T02:22:48.669Z,0.93
2024-02-19T02:25:54.800Z,0.80
2024-02-19T02:29:02.660Z,0.80
2024-02-19T02:32:08.381Z,0.70
2024-02-19T02:35:13.811Z,0.70
2024-02-19T02:38:20.020Z,0.93
2024-02-19T02:41:25.289Z,0.65
2024-02-19T02:44:33.463Z,0.30
2024-02-19T02:50:44.249Z,0.47
2024-02-19T02:53:49.655Z,0.60
2024-02-19T02:56:55.177Z,0.63
2024-02-19T03:00:03.107Z,0.80
2024-02-19T03:06:14.061Z,0.93
2024-02-19T03:09:19.665Z,1.27
2024-02-19T03:12:25.016Z,0.88
2024-02-19T03:15:33.201Z,0.77
2024-02-19T03:18:38.982Z,0.90
2024-02-19T03:21:45.334Z,0.95
2024-02-19T03:24:50.646Z,0.52
2024-02-19T03:27:56.403Z,0.73
2024-02-19T03:31:04.281Z,0.70
2024-02-19T03:34:10.048Z,0.73
2024-02-19T03:37:17.354Z,0.60
2024-02-19T03:40:23.261Z,0.63
2024-02-19T03:43:31.319Z,0.60
2024-02-19T03:46:39.678Z,0.70
2024-02-19T03:49:45.256Z,0.70
2024-02-19T03:52:50.643Z,0.60
2024-02-19T03:55:56.761Z,0.50
2024-02-19T03:59:02.031Z,0.65
2024-02-19T04:02:10.152Z,0.70
2024-02-19T04:05:15.461Z,0.65
2024-02-19T04:08:20.917Z,0.80
2024-02-19T04:11:26.238Z,0.75
2024-02-19T04:14:31.728Z,1.20
2024-02-19T04:17:39.839Z,1.10
2024-02-19T04:20:45.316Z,0.93
2024-02-19T04:23:50.625Z,1.58
2024-02-19T04:26:56.160Z,0.90
2024-02-19T04:30:01.488Z,1.33
2024-02-19T04:33:10.207Z,0.95
2024-02-19T04:36:15.654Z,1.25
2024-02-19T04:39:21.266Z,1.30
2024-02-19T04:42:26.562Z,1.13
2024-02-19T04:45:31.999Z,1.05
2024-02-19T04:48:41.105Z,1.15
2024-02-19T04:51:46.719Z,1.17
2024-02-19T04:54:52.471Z,1.38
2024-02-19T04:57:58.108Z,1.30
2024-02-19T05:01:04.916Z,1.10
2024-02-19T05:04:13.381Z,1.17
2024-02-19T05:07:19.167Z,1.33
2024-02-19T05:10:25.207Z,1.27
2024-02-19T05:13:30.635Z,1.42
2024-02-19T05:16:36.192Z,1.45
2024-02-19T05:19:44.638Z,1.80
2024-02-19T05:22:50.626Z,1.15
2024-02-19T05:25:55.879Z,1.23
2024-02-19T05:29:01.316Z,1.33
2024-02-19T05:32:06.948Z,1.20
2024-02-19T05:35:15.301Z,1.30
2024-02-19T05:38:21.104Z,1.90
2024-02-19T05:41:26.637Z,1.38
2024-02-19T05:44:32.165Z,1.50
2024-02-19T05:47:38.082Z,1.50
2024-02-19T05:50:46.395Z,1.50
2024-02-19T05:53:51.754Z,1.50
2024-02-19T05:56:57.226Z,1.60
2024-02-19T06:00:02.551Z,1.55
2024-02-19T06:03:12.867Z,1.85
2024-02-19T06:06:20.906Z,1.63
2024-02-19T06:09:26.310Z,1.73
2024-02-19T06:12:31.579Z,1.85
2024-02-19T06:15:37.116Z,2.47
2024-02-19T06:18:42.501Z,2.10
2024-02-19T06:21:50.863Z,2.05
2024-02-19T06:28:03.748Z,2.50
2024-02-19T06:31:09.598Z,2.30
2024-02-19T06:34:15.268Z,1.90
2024-02-19T06:37:23.753Z,2.13
2024-02-19T06:40:29.176Z,1.85
2024-02-19T06:43:34.746Z,1.88
2024-02-19T06:46:40.062Z,1.58
2024-02-19T06:49:45.681Z,1.90
2024-02-19T06:52:53.656Z,2.15
2024-02-19T06:55:59.307Z,2.00
2024-02-19T06:59:05.033Z,2.20
2024-02-19T07:02:10.639Z,1.80
2024-02-19T07:05:16.126Z,1.80
2024-02-19T07:08:24.758Z,1.80
2024-02-19T07:11:30.074Z,1.38
2024-02-19T07:14:35.682Z,1.85
2024-02-19T07:17:41.068Z,2.45
2024-02-19T07:20:46.686Z,1.67
2024-02-19T07:23:54.555Z,2.47
2024-02-19T07:27:00.027Z,2.55
2024-02-19T07:30:06.498Z,1.65
2024-02-19T07:33:12.299Z,2.17
2024-02-19T07:36:17.607Z,1.95
2024-02-19T07:39:25.840Z,2.63
2024-02-19T07:42:31.085Z,2.50
2024-02-19T07:45:36.809Z,2.00
2024-02-19T07:48:42.274Z,2.15
2024-02-19T07:51:47.830Z,2.25
2024-02-19T07:54:56.001Z,2.00
2024-02-19T07:58:01.526Z,2.30
2024-02-19T08:01:08.138Z,1.95
2024-02-19T08:04:13.822Z,1.85
2024-02-19T08:07:20.019Z,2.33
2024-02-19T08:10:28.304Z,2.53
2024-02-19T08:16:39.824Z,2.22
2024-02-19T08:19:46.131Z,2.80
2024-02-19T08:22:52.032Z,2.45
2024-02-19T08:26:00.666Z,2.10
2024-02-19T08:29:07.668Z,2.13
2024-02-19T08:32:13.256Z,2.17
2024-02-19T08:35:18.844Z,2.05
2024-02-19T08:38:24.242Z,2.15
2024-02-19T08:41:34.171Z,2.30
2024-02-19T08:44:39.485Z,2.17
2024-02-19T08:47:45.007Z,2.90
2024-02-19T08:50:54.019Z,2.50
2024-02-19T08:54:00.369Z,3.85
2024-02-19T08:57:08.902Z,2.20
2024-02-19T09:00:15.117Z,2.40
2024-02-19T09:03:20.502Z,2.03
2024-02-19T09:06:26.005Z,2.50
2024-02-19T09:09:31.293Z,2.17
2024-02-19T09:12:39.369Z,2.78
2024-02-19T09:15:45.812Z,2.72
2024-02-19T09:18:51.470Z,2.10
2024-02-19T09:21:58.106Z,2.40
2024-02-19T09:25:04.238Z,2.05
2024-02-19T09:28:12.185Z,3.20
2024-02-19T09:31:18.049Z,2.47
2024-02-19T09:34:23.693Z,3.30
2024-02-19T09:37:29.253Z,2.83
2024-02-19T09:40:36.085Z,2.92
2024-02-19T09:43:44.183Z,2.88
2024-02-19T09:46:49.762Z,2.90
2024-02-19T09:49:55.475Z,2.72
2024-02-19T09:53:05.219Z,2.83
2024-02-19T09:56:15.280Z,2.38
2024-02-19T09:59:23.237Z,2.70
2024-02-19T10:02:28.730Z,2.80
2024-02-19T10:05:34.201Z,2.72
2024-02-19T10:08:39.776Z,2.08
2024-02-19T10:11:45.322Z,2.47
2024-02-19T10:14:53.405Z,2.53
2024-02-19T10:17:58.774Z,2.05
2024-02-19T10:21:04.287Z,2.13
2024-02-19T10:24:10.408Z,3.28
2024-02-19T10:27:16.959Z,2.70
2024-02-19T10:30:25.041Z,3.50
2024-02-19T10:33:30.762Z,3.33
2024-02-19T10:36:36.955Z,2.58
2024-02-19T10:39:42.464Z,2.17
2024-02-19T10:42:47.917Z,2.83
2024-02-19T10:45:56.104Z,2.92
2024-02-19T10:49:01.607Z,2.90
2024-02-19T10:52:08.965Z,3.25
2024-02-19T10:55:19.922Z,3.10
2024-02-19T10:58:30.606Z,3.45
2024-02-19T11:01:46.350Z,2.90
2024-02-19T11:04:54.486Z,3.30
2024-02-19T11:07:59.793Z,3.35
2024-02-19T11:11:07.234Z,3.15
2024-02-19T11:14:12.538Z,3.60
2024-02-19T11:17:21.000Z,2.95
2024-02-19T11:20:30.180Z,3.42
2024-02-19T11:23:35.688Z,3.60
2024-02-19T11:26:43.589Z,3.35
2024-02-19T11:29:49.055Z,3.65
2024-02-19T11:33:05.292Z,3.38
2024-02-19T11:36:12.193Z,3.05
2024-02-19T11:39:17.476Z,2.70
2024-02-19T11:42:24.481Z,2.75
2024-02-19T11:45:30.237Z,2.63
2024-02-19T11:48:38.642Z,2.60
2024-02-19T11:51:45.734Z,3.30
2024-02-19T11:54:57.298Z,2.40
2024-02-19T11:58:04.032Z,2.20
2024-02-19T12:01:10.439Z,2.72
2024-02-19T12:04:18.369Z,2.30
2024-02-19T12:07:24.354Z,2.10
2024-02-19T12:10:30.099Z,2.20
2024-02-19T12:13:37.744Z,2.08
2024-02-19T12:16:44.138Z,2.07
2024-02-19T12:19:55.308Z,1.80
2024-02-19T12:23:02.220Z,1.80
2024-02-19T12:26:09.464Z,2.00
2024-02-19T12:29:15.500Z,1.90
2024-02-19T12:32:21.001Z,1.95
2024-02-19T12:35:29.188Z,2.45
2024-02-19T12:38:34.524Z,2.00
2024-02-19T12:41:40.274Z,2.40
2024-02-19T12:44:46.071Z,2.10
2024-02-19T12:47:52.003Z,1.90
2024-02-19T12:51:00.565Z,1.90
2024-02-19T12:57:11.360Z,2.20
2024-02-19T13:00:17.273Z,1.88
2024-02-19T13:03:22.516Z,1.92
2024-02-19T13:06:31.645Z,2.05
2024-02-19T13:09:37.252Z,2.33
2024-02-19T13:12:42.749Z,1.90
2024-02-19T13:15:50.528Z,1.80
2024-02-19T13:18:56.352Z,1.88
2024-02-19T13:22:04.936Z,1.80
2024-02-19T13:25:11.533Z,2.08
2024-02-19T13:28:16.976Z,2.22
2024-02-19T13:31:22.750Z,1.83
2024-02-19T13:34:28.641Z,1.80
2024-02-19T13:37:37.713Z,1.98
2024-02-19T13:40:43.369Z,1.98
2024-02-19T13:43:49.042Z,2.30
2024-02-19T13:46:54.743Z,1.63
2024-02-19T13:50:00.572Z,1.73
2024-02-19T13:53:12.199Z,1.85
2024-02-19T13:56:17.849Z,2.40
2024-02-19T13:59:23.359Z,2.03
2024-02-19T14:02:28.969Z,2.22
2024-02-19T14:05:34.788Z,1.77
2024-02-19T14:08:43.274Z,2.20
2024-02-19T14:11:49.299Z,1.67
2024-02-19T14:14:54.845Z,1.98
2024-02-19T14:18:00.497Z,1.90
2024-02-19T14:21:12.023Z,2.08
2024-02-19T14:24:20.255Z,2.20
2024-02-19T14:27:25.556Z,2.63
2024-02-19T14:30:31.135Z,2.42
2024-02-19T14:33:36.606Z,2.03
2024-02-19T14:36:42.708Z,2.15
2024-02-19T14:39:51.534Z,1.83
2024-02-19T14:42:58.491Z,5.10
2024-02-19T14:46:07.976Z,1.60
2024-02-19T14:49:14.014Z,1.40
2024-02-19T14:52:19.412Z,1.40
2024-02-19T14:55:27.694Z,1.30
2024-02-19T14:58:33.710Z,1.40
2024-02-19T15:01:39.504Z,1.35
2024-02-19T15:04:44.995Z,1.33
2024-02-19T15:07:55.975Z,1.40
2024-02-19T15:11:05.376Z,1.50
2024-02-19T15:14:11.640Z,1.60
2024-02-19T15:17:17.271Z,1.55
2024-02-19T15:20:23.295Z,1.42
2024-02-19T15:23:29.472Z,1.60
2024-02-19T15:30:11.577Z,2.20
2024-02-19T15:33:16.877Z,1.77
2024-02-19T15:36:22.681Z,1.95
2024-02-19T15:39:27.939Z,2.03
2024-02-19T15:42:38.215Z,2.58
2024-02-19T15:45:46.061Z,1.88
2024-02-19T15:48:51.404Z,2.70
2024-02-19T15:51:56.770Z,2.47
2024-02-19T15:55:02.488Z,2.83
2024-02-19T15:58:08.141Z,3.05
2024-02-19T16:01:16.067Z,3.35
2024-02-19T16:04:23.891Z,3.20
2024-02-19T16:07:29.645Z,3.97
2024-02-19T16:10:35.069Z,3.67
2024-02-19T16:13:41.240Z,3.15
2024-02-19T16:16:49.113Z,3.85
2024-02-19T16:19:55.176Z,4.30
2024-02-19T16:23:00.358Z,5.35
2024-02-19T16:26:07.140Z,5.53
2024-02-19T16:29:14.604Z,4.85
2024-02-19T16:32:22.478Z,4.20
2024-02-19T16:35:31.349Z,4.30
2024-02-19T16:38:39.226Z,4.82
2024-02-19T16:41:44.830Z,4.32
2024-02-19T16:44:50.121Z,5.07
2024-02-19T16:47:58.063Z,4.75
2024-02-19T16:51:03.338Z,5.35
2024-02-19T16:54:10.063Z,5.47
2024-02-19T16:57:15.228Z,4.93
2024-02-19T17:00:21.479Z,5.30
2024-02-19T17:03:29.475Z,5.00
2024-02-19T17:06:34.679Z,4.93
2024-02-19T17:09:40.328Z,5.25
2024-02-19T17:12:46.355Z,6.00
2024-02-19T17:15:51.717Z,5.68
2024-02-19T17:19:00.294Z,5.45
2024-02-19T17:22:05.779Z,5.55
2024-02-19T17:25:11.765Z,5.78
2024-02-19T17:28:21.316Z,5.72
2024-02-19T17:31:28.686Z,5.63
2024-02-19T17:34:36.715Z,6.22
2024-02-19T17:37:42.405Z,6.47
2024-02-19T17:40:47.680Z,6.78
2024-02-19T17:43:53.047Z,6.90
2024-02-19T17:46:58.257Z,6.18
2024-02-19T17:50:06.106Z,6.75
2024-02-19T17:53:11.493Z,6.40
2024-02-19T17:56:16.940Z,6.75
2024-02-19T17:59:22.156Z,6.28
2024-02-19T18:02:27.364Z,6.60
2024-02-19T18:05:35.247Z,6.40
2024-02-19T18:08:40.485Z,7.22
2024-02-19T18:11:45.630Z,6.88
2024-02-19T18:14:51.239Z,6.50
2024-02-19T18:17:58.407Z,10.20
2024-02-19T18:21:06.365Z,8.38
2024-02-19T18:24:11.978Z,6.57
2024-02-19T18:27:17.161Z,6.78
2024-02-19T18:30:22.462Z,7.40
2024-02-19T18:33:30.019Z,6.45
2024-02-19T18:36:38.019Z,6.38
2024-02-19T18:42:48.078Z,5.78
2024-02-19T18:45:53.324Z,5.85
2024-02-19T18:48:59.351Z,6.10
2024-02-19T18:52:07.443Z,6.18
2024-02-19T18:55:12.939Z,5.30
2024-02-19T18:58:18.186Z,6.28
2024-02-19T19:01:24.021Z,6.15
2024-02-19T19:04:29.489Z,6.15
2024-02-19T19:07:37.876Z,5.88
2024-02-19T19:10:44.863Z,6.55
2024-02-19T19:13:50.133Z,5.88
2024-02-19T19:16:55.308Z,6.28
2024-02-19T19:20:00.835Z,6.13
2024-02-19T19:23:08.886Z,6.55
2024-02-19T19:26:14.136Z,6.55
2024-02-19T19:29:19.965Z,7.20
2024-02-19T19:32:27.318Z,7.35
2024-02-19T19:35:34.790Z,7.53
2024-02-19T19:38:42.798Z,12.60
2024-02-19T19:41:48.247Z,7.55
2024-02-19T19:44:53.690Z,7.88
2024-02-19T19:47:58.894Z,7.22
2024-02-19T19:51:04.392Z,7.60
2024-02-19T19:54:12.128Z,7.30
2024-02-19T19:57:17.294Z,8.07
2024-02-19T20:00:22.855Z,7.80
2024-02-19T20:03:28.079Z,7.72
2024-02-19T20:06:33.755Z,7.40
2024-02-19T20:09:43.892Z,7.97
2024-02-19T20:12:51.087Z,8.13
2024-02-19T20:15:56.678Z,8.18
2024-02-19T20:19:02.238Z,8.23
2024-02-19T20:22:07.865Z,8.32
2024-02-19T20:25:17.296Z,8.73
2024-02-19T20:28:23.424Z,8.60
2024-02-19T20:31:28.658Z,8.98
2024-02-19T20:34:35.320Z,9.07
2024-02-19T20:37:40.702Z,9.32
2024-02-19T20:40:48.559Z,9.20
2024-02-19T20:43:53.744Z,9.20
2024-02-19T20:46:59.534Z,8.63
2024-02-19T20:50:05.781Z,9.45
2024-02-19T20:53:14.899Z,10.38
2024-02-19T20:56:22.737Z,8.73
2024-02-19T20:59:28.872Z,9.65
2024-02-19T21:02:35.211Z,8.82
2024-02-19T21:05:40.496Z,10.13
2024-02-19T21:08:45.753Z,10.93
2024-02-19T21:11:54.481Z,11.38
2024-02-19T21:14:59.884Z,9.45
2024-02-19T21:18:10.481Z,9.65
2024-02-19T21:21:26.618Z,10.65
2024-02-19T21:24:39.028Z,9.68
2024-02-19T21:27:46.978Z,10.35
2024-02-19T21:33:57.905Z,10.07
2024-02-19T21:37:03.589Z,10.43
2024-02-19T21:40:10.792Z,10.43
2024-02-19T21:43:18.710Z,10.32
2024-02-19T21:46:23.997Z,8.93
2024-02-19T21:49:29.472Z,10.15
2024-02-19T21:52:34.701Z,11.30
2024-02-19T21:55:39.890Z,10.88
2024-02-19T21:58:47.667Z,9.18
2024-02-19T22:01:52.913Z,10.82
2024-02-19T22:04:58.382Z,11.13
2024-02-19T22:08:04.673Z,9.80
2024-02-19T22:11:10.400Z,10.30
2024-02-19T22:14:18.635Z,11.15
2024-02-19T22:17:23.751Z,10.05
2024-02-19T22:20:29.002Z,10.23
2024-02-19T22:23:34.106Z,11.02
2024-02-19T22:26:39.263Z,11.25
2024-02-19T22:29:46.977Z,10.98
2024-02-19T22:32:52.231Z,9.95
2024-02-19T22:35:57.546Z,9.93
2024-02-19T22:39:02.800Z,10.05
2024-02-19T22:42:08.226Z,10.07
2024-02-19T22:45:16.063Z,10.52
2024-02-19T22:48:21.364Z,10.40
2024-02-19T22:51:26.679Z,9.90
2024-02-19T22:54:32.401Z,10.25
2024-02-19T22:57:37.639Z,9.93
2024-02-19T23:00:47.167Z,10.05
2024-02-19T23:03:52.560Z,10.55
2024-02-19T23:06:58.932Z,9.48
2024-02-19T23:10:04.941Z,11.32
2024-02-19T23:13:10.092Z,10.15
2024-02-19T23:16:18.028Z,11.93
2024-02-19T23:22:28.402Z,10.68
2024-02-19T23:25:33.872Z,10.85
2024-02-19T23:28:39.125Z,11.45
2024-02-19T23:31:47.640Z,12.95
2024-02-19T23:34:52.834Z,13.95
2024-02-19T23:37:58.260Z,13.05
2024-02-19T23:41:03.623Z,13.18
2024-02-19T23:44:08.868Z,11.40
2024-02-19T23:47:16.788Z,12.43
2024-02-19T23:50:21.990Z,12.65
2024-02-19T23:53:28.283Z,12.00
2024-02-19T23:56:33.883Z,11.73
2024-02-19T23:59:39.171Z,12.05
